Time;durP1;ratioP1;P1;durP2;ratioP2;P2;SDS_P1;SDS_P2;PMS_P1;PMS_P2;Temp;Humidity;BMP_temperature;BMP_pressure;BME280_temperature;BME280_humidity;BME280_pressure;Samples;Min_cycle;Max_cycle;Signal;HPM_P1;HPM_P2
2024/03/10 00:01:01;;;;;;;;;;;;;;;16.67;45.48;101279.25;5037220;28;1047;-52
2024/03/10 00:03:27;;;;;;;;;;;;;;;16.64;45.94;101276.22;5037329;28;1031;-52
2024/03/10 00:05:52;;;;;;;;;;;;;;;16.87;45.53;101289.59;5037647;28;1972;-54
2024/03/10 00:08:18;;;;;;;;;;;;;;;16.57;45.94;101276.44;5034554;28;902;-54
2024/03/10 00:10:44;;;;;;;;;;;;;;;18.21;43.14;101276.53;5026387;28;1056;-54
2024/03/10 00:13:09;;;;;;;;;;;;;;;16.91;45.46;101276.19;5036978;28;1039;-53
2024/03/10 00:15:37;;;;;;;;;;;;;;;16.93;45.90;101279.50;5037013;28;1064;-53
2024/03/10 00:18:04;;;;;;;;;;;;;;;17.67;44.04;101274.13;5036855;28;1131;-54
2024/03/10 00:20:30;;;;;;;;;;;;;;;16.81;45.69;101270.59;5028131;28;896;-54
2024/03/10 00:22:55;;;;;;;;;;;;;;;16.55;45.65;101273.13;5032055;28;2602;-53
2024/03/10 00:25:21;;;;;;;;;;;;;;;17.22;45.30;101268.13;5025789;28;1987;-54
2024/03/10 00:27:46;;;;;;;;;;;;;;;17.15;45.42;101268.38;5036798;28;1071;-54
2024/03/10 00:30:12;;;;;;;;;;;;;;;16.47;45.94;101259.88;5035429;28;1119;-55
2024/03/10 00:32:38;;;;;;;;;;;;;;;16.46;45.79;101264.53;5020976;28;1025;-54
2024/03/10 00:35:06;;;;;;;;;;;;;;;17.25;45.04;101264.84;5016933;28;1218;-54
2024/03/10 00:37:32;;;;;;;;;;;;;;;16.58;45.79;101256.13;5032472;28;1122;-54
2024/03/10 00:39:57;;;;;;;;;;;;;;;16.56;46.06;101252.81;5036783;28;1130;-52
2024/03/10 00:42:23;;;;;;;;;;;;;;;16.90;45.85;101242.41;5036316;28;1134;-54
2024/03/10 00:44:50;;;;;;;;;;;;;;;16.32;46.07;101247.66;5036339;28;945;-53
2024/03/10 00:47:16;;;;;;;;;;;;;;;17.82;43.97;101238.44;5036633;28;1984;-55
2024/03/10 00:49:41;;;;;;;;;;;;;;;16.83;45.79;101235.44;5036658;28;1052;-52
2024/03/10 00:52:07;;;;;;;;;;;;;;;16.33;45.95;101232.84;5036390;28;1043;-54
2024/03/10 00:54:34;;;;;;;;;;;;;;;17.98;43.79;101235.75;5031782;28;2637;-54
2024/03/10 00:56:59;;;;;;;;;;;;;;;17.02;45.29;101231.19;5036010;28;1193;-54
2024/03/10 00:59:25;;;;;;;;;;;;;;;16.67;45.66;101229.03;5036324;28;1055;-54
2024/03/10 01:01:50;;;;;;;;;;;;;;;17.63;44.08;101221.59;5034052;28;1023;-52
2024/03/10 01:04:16;;;;;;;;;;;;;;;16.70;45.60;101215.56;5031005;28;1157;-53
2024/03/10 01:06:41;;;;;;;;;;;;;;;16.48;45.63;101225.84;5036000;28;1987;-53
2024/03/10 01:09:08;;;;;;;;;;;;;;;16.77;45.40;101220.84;5027566;28;909;-53
2024/03/10 01:11:39;;;;;;;;;;;;;;;17.06;45.06;101224.09;5032091;28;1214;-52
2024/03/10 01:14:05;;;;;;;;;;;;;;;16.58;45.79;101212.22;5036394;28;1168;-53
2024/03/10 01:16:31;;;;;;;;;;;;;;;17.16;45.16;101222.50;5035616;28;988;-52
2024/03/10 01:18:56;;;;;;;;;;;;;;;17.18;45.04;101221.16;5036217;28;1105;-53
2024/03/10 01:21:22;;;;;;;;;;;;;;;16.56;45.74;101225.34;5036338;28;1135;-52
2024/03/10 01:23:48;;;;;;;;;;;;;;;16.32;45.41;101220.22;5028628;28;2463;-53
2024/03/10 01:26:13;;;;;;;;;;;;;;;17.73;43.98;101220.81;5031543;28;1981;-53
2024/03/10 01:28:39;;;;;;;;;;;;;;;16.57;46.02;101216.84;5036016;28;1107;-54
2024/03/10 01:31:05;;;;;;;;;;;;;;;16.53;46.05;101210.22;5035885;28;1012;-55
2024/03/10 01:33:33;;;;;;;;;;;;;;;17.50;44.11;101209.19;5035648;28;897;-55
2024/03/10 01:35:58;;;;;;;;;;;;;;;16.62;45.67;101205.09;5041644;28;1031;-54
2024/03/10 01:38:24;;;;;;;;;;;;;;;16.41;45.28;101206.84;5042668;28;1079;-55
2024/03/10 01:40:49;;;;;;;;;;;;;;;16.28;45.48;101210.84;5042542;28;1123;-55
2024/03/10 01:43:15;;;;;;;;;;;;;;;18.01;43.49;101204.97;5042283;28;1098;-54
2024/03/10 01:45:40;;;;;;;;;;;;;;;16.65;46.21;101206.47;5042255;28;1909;-53
2024/03/10 01:48:06;;;;;;;;;;;;;;;16.36;45.90;101198.59;5042464;28;1096;-55
2024/03/10 01:50:32;;;;;;;;;;;;;;;16.85;45.75;101205.81;5060866;28;1124;-54
2024/03/10 01:52:57;;;;;;;;;;;;;;;17.73;44.04;101205.13;5042010;28;2507;-54
2024/03/10 01:55:22;;;;;;;;;;;;;;;16.71;45.80;101200.75;5041544;28;1142;-54
2024/03/10 01:57:48;;;;;;;;;;;;;;;16.33;45.67;101199.09;5041015;28;913;-54
2024/03/10 02:00:14;;;;;;;;;;;;;;;16.09;45.79;101199.44;5041237;28;1067;-55
2024/03/10 02:02:42;;;;;;;;;;;;;;;17.37;44.79;101202.25;5041166;28;1047;-54
2024/03/10 02:05:09;;;;;;;;;;;;;;;16.51;46.33;101203.34;5041950;28;1063;-54
2024/03/10 02:07:35;;;;;;;;;;;;;;;17.53;44.71;101211.41;5042077;28;1902;-54
2024/03/10 02:10:02;;;;;;;;;;;;;;;17.35;44.37;101212.69;5042060;28;1058;-53
2024/03/10 02:12:27;;;;;;;;;;;;;;;16.58;45.75;101202.03;5063333;28;1083;-54
2024/03/10 02:14:56;;;;;;;;;;;;;;;18.32;42.55;101205.81;5036791;28;1059;-54
2024/03/10 02:17:22;;;;;;;;;;;;;;;17.01;45.33;101201.25;5032394;28;1207;-54
2024/03/10 02:19:47;;;;;;;;;;;;;;;16.86;45.36;101196.47;5041600;28;1126;-54
2024/03/10 02:22:14;;;;;;;;;;;;;;;17.40;44.44;101201.72;5032547;28;1032;-54
2024/03/10 02:24:40;;;;;;;;;;;;;;;16.65;45.58;101196.34;5039095;28;2496;-54
2024/03/10 02:27:15;;;;;;;;;;;;;;;16.40;45.31;101194.22;5042104;28;1898;-54
2024/03/10 02:29:59;;;;;;;;;;;;;;;17.28;44.69;101206.63;5042024;28;1063;-54
2024/03/10 02:48:49;;;;;;;;;;;;;;;16.77;45.42;101202.47;5038501;28;1019;-54
2024/03/10 02:51:14;;;;;;;;;;;;;;;16.43;45.33;101194.50;5038829;28;1106;-51
2024/03/10 02:53:40;;;;;;;;;;;;;;;17.29;44.91;101194.50;5033409;28;2463;-53
2024/03/10 02:56:05;;;;;;;;;;;;;;;17.06;45.25;101193.88;5038186;28;1219;-54
2024/03/10 02:58:31;;;;;;;;;;;;;;;16.54;45.76;101189.94;5038640;28;1063;-54
2024/03/10 03:00:57;;;;;;;;;;;;;;;16.56;45.78;101189.66;5038413;28;1090;-52
2024/03/10 03:03:23;;;;;;;;;;;;;;;17.74;43.61;101190.28;5030458;28;1080;-53
2024/03/10 03:05:48;;;;;;;;;;;;;;;16.71;45.51;101189.78;5038413;28;1926;-55
2024/03/10 03:08:14;;;;;;;;;;;;;;;16.95;45.65;101188.59;5037999;28;1050;-53
2024/03/10 03:10:39;;;;;;;;;;;;;;;16.83;45.64;101191.50;5038489;28;1194;-54
2024/03/10 03:13:05;;;;;;;;;;;;;;;16.42;45.69;101198.38;5038266;28;1040;-51
2024/03/10 03:15:31;;;;;;;;;;;;;;;17.98;43.21;101194.47;5038448;28;1099;-53
2024/03/10 03:17:57;;;;;;;;;;;;;;;16.70;45.82;101193.59;5038141;28;1007;-52
2024/03/10 03:20:24;;;;;;;;;;;;;;;17.09;45.15;101195.25;5037843;28;1163;-52
2024/03/10 03:22:49;;;;;;;;;;;;;;;17.35;44.23;101184.38;5038122;28;1067;-53
2024/03/10 03:25:17;;;;;;;;;;;;;;;16.63;45.38;101186.69;5035867;28;2935;-54
2024/03/10 03:27:46;;;;;;;;;;;;;;;17.10;45.00;101194.16;5038170;28;1142;-54
2024/03/10 03:30:12;;;;;;;;;;;;;;;17.06;44.73;101196.59;5038094;28;1087;-53
2024/03/10 03:32:37;;;;;;;;;;;;;;;16.54;45.68;101189.94;5037858;28;1126;-53
2024/03/10 03:35:03;;;;;;;;;;;;;;;16.97;45.35;101198.22;5038133;28;1099;-52
2024/03/10 03:37:30;;;;;;;;;;;;;;;17.24;44.48;101197.25;5037552;28;1081;-53
2024/03/10 03:39:56;;;;;;;;;;;;;;;16.52;45.55;101191.28;5029351;28;1233;-54
2024/03/10 03:42:22;;;;;;;;;;;;;;;17.42;44.52;101198.72;5019838;28;1138;-53
2024/03/10 03:44:49;;;;;;;;;;;;;;;16.86;45.13;101197.28;5035803;28;1154;-54
2024/03/10 03:47:15;;;;;;;;;;;;;;;16.42;45.67;101192.03;5037624;28;1970;-54
2024/03/10 03:49:43;;;;;;;;;;;;;;;17.84;43.33;101199.66;5037701;28;1145;-52
2024/03/10 03:52:08;;;;;;;;;;;;;;;16.67;45.43;101194.13;5037418;28;1016;-54
2024/03/10 03:54:34;;;;;;;;;;;;;;;16.37;45.34;101194.75;5037648;28;1125;-54
2024/03/10 03:57:00;;;;;;;;;;;;;;;17.10;44.96;101197.72;5036785;28;1237;-52
2024/03/10 03:59:25;;;;;;;;;;;;;;;16.41;45.62;101199.44;5037377;28;1083;-54
2024/03/10 04:01:51;;;;;;;;;;;;;;;17.42;44.37;101206.97;5037357;28;1226;-53
2024/03/10 04:04:16;;;;;;;;;;;;;;;16.98;44.82;101199.03;5037526;28;1062;-52
2024/03/10 04:06:45;;;;;;;;;;;;;;;17.06;45.14;101204.84;5036954;28;1973;-53
2024/03/10 04:09:11;;;;;;;;;;;;;;;18.29;42.15;101206.34;5037324;28;1126;-53
2024/03/10 04:11:38;;;;;;;;;;;;;;;17.00;44.91;101202.34;5037033;28;1080;-54
2024/03/10 04:14:06;;;;;;;;;;;;;;;16.48;45.24;101203.88;5037376;28;1237;-54
2024/03/10 04:16:31;;;;;;;;;;;;;;;17.57;43.88;101206.16;5037179;28;1123;-52
2024/03/10 04:18:57;;;;;;;;;;;;;;;17.10;44.80;101205.97;5037511;28;1134;-51
2024/03/10 04:21:22;;;;;;;;;;;;;;;16.58;45.20;101213.03;5033032;28;1151;-53
2024/03/10 04:23:48;;;;;;;;;;;;;;;18.06;42.82;101219.56;5027644;28;1059;-53
2024/03/10 04:26:13;;;;;;;;;;;;;;;16.86;45.15;101218.44;5038902;28;1902;-56
2024/03/10 04:28:39;;;;;;;;;;;;;;;16.62;44.99;101213.34;5046547;28;1189;-57
2024/03/10 04:31:04;;;;;;;;;;;;;;;16.72;45.34;101218.09;5023474;28;1254;-56
2024/03/10 04:33:30;;;;;;;;;;;;;;;16.69;45.48;101215.84;5035719;28;1262;-55
2024/03/10 04:35:55;;;;;;;;;;;;;;;16.36;45.80;101217.78;5036586;28;1289;-58
2024/03/10 04:38:21;;;;;;;;;;;;;;;17.85;43.15;101215.06;5033976;28;1270;-56
2024/03/10 04:40:46;;;;;;;;;;;;;;;16.75;45.13;101218.38;5031852;28;1294;-54
2024/03/10 04:43:12;;;;;;;;;;;;;;;16.90;45.40;101225.91;5028723;28;1266;-53
2024/03/10 04:45:37;;;;;;;;;;;;;;;17.23;44.29;101218.41;5036323;28;1906;-57
2024/03/10 04:48:03;;;;;;;;;;;;;;;16.63;45.24;101214.97;5037108;28;1095;-56
2024/03/10 04:50:29;;;;;;;;;;;;;;;16.84;45.32;101220.63;5036287;28;1179;-57
2024/03/10 04:52:57;;;;;;;;;;;;;;;17.35;44.28;101220.94;5029567;28;1257;-58
2024/03/10 04:55:23;;;;;;;;;;;;;;;16.56;45.49;101214.38;5036038;28;1153;-55
2024/03/10 04:57:49;;;;;;;;;;;;;;;16.81;45.38;101229.41;5035757;28;1135;-58
2024/03/10 05:00:18;;;;;;;;;;;;;;;17.15;44.42;101231.81;5035394;28;1361;-58
2024/03/10 05:02:44;;;;;;;;;;;;;;;16.35;45.54;101225.19;5027058;28;932;-54
2024/03/10 05:05:10;;;;;;;;;;;;;;;16.40;45.98;101227.97;5036660;28;1174;-53
2024/03/10 05:07:36;;;;;;;;;;;;;;;17.05;44.76;101227.09;5036139;28;1925;-55
2024/03/10 05:10:01;;;;;;;;;;;;;;;17.69;43.65;101228.75;5034798;28;1476;-55
2024/03/10 05:12:28;;;;;;;;;;;;;;;18.34;42.12;101225.63;5036187;28;1000;-53
2024/03/10 05:14:53;;;;;;;;;;;;;;;17.41;43.88;101225.34;5036118;28;1116;-55
2024/03/10 05:17:19;;;;;;;;;;;;;;;16.90;44.96;101225.06;5036283;28;1130;-55
2024/03/10 05:19:44;;;;;;;;;;;;;;;16.63;45.87;101223.22;5036290;28;1167;-55
2024/03/10 05:22:10;;;;;;;;;;;;;;;16.40;46.25;101238.97;5036032;28;869;-55
2024/03/10 05:24:41;;;;;;;;;;;;;;;16.21;46.66;101232.19;5035966;28;1106;-55
2024/03/10 05:27:07;;;;;;;;;;;;;;;16.12;46.86;101237.31;5035851;28;1910;-56
2024/03/10 05:29:32;;;;;;;;;;;;;;;15.91;47.32;101242.59;5036194;28;1126;-55
2024/03/10 05:31:58;;;;;;;;;;;;;;;15.76;47.58;101242.41;5036232;28;1139;-55
2024/03/10 05:34:23;;;;;;;;;;;;;;;15.69;47.82;101241.75;5032748;28;1071;-55
2024/03/10 05:36:49;;;;;;;;;;;;;;;15.46;48.23;101237.34;5026209;28;1075;-54
2024/03/10 05:39:14;;;;;;;;;;;;;;;16.76;45.18;101242.00;5032832;28;1079;-54
2024/03/10 05:41:40;;;;;;;;;;;;;;;17.20;43.88;101240.09;5026281;28;1103;-55
2024/03/10 05:44:06;;;;;;;;;;;;;;;16.37;45.65;101244.97;5035690;28;1106;-56
2024/03/10 05:46:32;;;;;;;;;;;;;;;15.91;46.75;101248.06;5035988;28;1979;-55
2024/03/10 05:49:00;;;;;;;;;;;;;;;15.80;47.28;101253.72;5035802;28;1167;-56
2024/03/10 05:51:27;;;;;;;;;;;;;;;15.57;47.77;101242.72;5036324;28;1083;-55
2024/03/10 05:53:52;;;;;;;;;;;;;;;16.71;45.15;101244.69;5035842;28;1071;-55
2024/03/10 05:56:18;;;;;;;;;;;;;;;17.58;42.88;101247.16;5035422;28;1216;-55
2024/03/10 05:58:45;;;;;;;;;;;;;;;16.53;45.17;101240.44;5032240;28;1174;-56
2024/03/10 06:01:11;;;;;;;;;;;;;;;16.08;46.37;101239.75;5016474;28;1217;-55
2024/03/10 06:03:37;;;;;;;;;;;;;;;15.79;47.00;101238.31;5033022;28;1111;-55
2024/03/10 06:06:03;;;;;;;;;;;;;;;15.61;47.46;101243.03;5035344;28;1987;-54
2024/03/10 06:08:29;;;;;;;;;;;;;;;16.80;44.90;101230.47;5035760;28;1122;-56
2024/03/10 06:10:54;;;;;;;;;;;;;;;17.58;42.58;101241.66;5025476;28;1036;-56
2024/03/10 06:13:20;;;;;;;;;;;;;;;16.47;45.18;101254.41;5019455;28;1064;-57
2024/03/10 06:15:45;;;;;;;;;;;;;;;16.17;46.26;101253.84;5035352;28;1167;-57
2024/03/10 06:18:24;;;;;;;;;;;;;;;15.83;46.87;101254.03;5035629;28;1054;-56
2024/03/10 06:26:18;;;;;;;;;;;;;;;17.45;43.14;101253.97;5022116;28;1965;-61
2024/03/10 06:28:44;;;;;;;;;;;;;;;16.51;45.43;101255.50;5019741;28;1032;-60
2024/03/10 06:31:09;;;;;;;;;;;;;;;16.14;46.26;101256.28;5036162;28;1174;-60
2024/03/10 06:33:35;;;;;;;;;;;;;;;15.90;46.79;101257.38;5039328;28;1016;-60
2024/03/10 06:36:08;;;;;;;;;;;;;;;15.66;47.38;101253.25;5039022;28;1031;-60
2024/03/10 06:38:38;;;;;;;;;;;;;;;17.26;43.63;101252.78;5030669;28;1147;-59
2024/03/10 06:41:10;;;;;;;;;;;;;;;17.42;43.12;101257.25;5034343;28;1079;-60
2024/03/10 06:43:37;;;;;;;;;;;;;;;16.51;45.22;101266.47;5038897;28;1082;-59
2024/03/10 06:46:03;;;;;;;;;;;;;;;16.21;46.23;101256.88;5037901;28;1906;-60
2024/03/10 06:48:29;;;;;;;;;;;;;;;15.87;46.91;101265.31;5039620;28;1092;-60
2024/03/10 06:50:55;;;;;;;;;;;;;;;15.75;47.33;101265.41;5021996;28;1039;-59
2024/03/10 06:53:21;;;;;;;;;;;;;;;16.82;45.02;101264.03;5029185;28;1051;-59
2024/03/10 06:55:46;;;;;;;;;;;;;;;17.56;42.97;101265.03;5025566;28;1166;-59
2024/03/10 06:58:12;;;;;;;;;;;;;;;16.52;45.24;101265.41;5038402;28;1024;-61
2024/03/10 07:00:39;;;;;;;;;;;;;;;16.21;46.03;101273.34;5038633;28;1079;-59
2024/03/10 07:03:07;;;;;;;;;;;;;;;15.85;47.29;101267.47;5038898;28;1068;-59
2024/03/10 07:05:33;;;;;;;;;;;;;;;15.70;47.29;101282.63;5038879;28;1979;-59
2024/03/10 07:08:00;;;;;;;;;;;;;;;17.00;44.37;101271.88;5038580;28;1043;-59
2024/03/10 07:10:27;;;;;;;;;;;;;;;17.52;43.27;101270.22;5038097;28;1116;-59
2024/03/10 07:12:52;;;;;;;;;;;;;;;16.54;45.52;101266.00;5038574;28;1336;-60
2024/03/10 07:15:18;;;;;;;;;;;;;;;16.23;46.17;101271.19;5038568;28;1239;-59
2024/03/10 07:17:43;;;;;;;;;;;;;;;15.87;47.20;101274.34;5038445;28;1143;-61
2024/03/10 07:20:10;;;;;;;;;;;;;;;15.62;47.52;101274.84;5038866;28;1151;-59
2024/03/10 07:22:37;;;;;;;;;;;;;;;16.32;46.16;101268.81;5033167;28;1062;-59
2024/03/10 07:25:06;;;;;;;;;;;;;;;17.60;43.12;101269.72;5037919;28;1037;-60
2024/03/10 07:27:31;;;;;;;;;;;;;;;17.02;44.46;101271.59;5023534;28;1901;-59
2024/03/10 07:29:58;;;;;;;;;;;;;;;16.31;45.97;101273.44;5038097;28;1156;-59
2024/03/10 07:32:24;;;;;;;;;;;;;;;16.01;46.59;101274.78;5036931;28;1075;-59
2024/03/10 07:34:49;;;;;;;;;;;;;;;15.82;47.24;101263.34;5030016;28;1144;-60
2024/03/10 07:37:15;;;;;;;;;;;;;;;16.80;44.95;101258.75;5031948;28;1107;-59
2024/03/10 07:39:40;;;;;;;;;;;;;;;17.55;43.32;101263.38;5024861;28;1079;-59
2024/03/10 07:42:06;;;;;;;;;;;;;;;16.51;45.67;101266.47;5024885;28;1170;-59
2024/03/10 07:44:32;;;;;;;;;;;;;;;16.15;46.27;101258.75;5036641;28;1043;-58
2024/03/10 07:46:58;;;;;;;;;;;;;;;15.93;46.90;101257.97;5037104;28;1906;-58
2024/03/10 07:49:24;;;;;;;;;;;;;;;15.68;47.50;101260.13;5017635;28;1091;-60
2024/03/10 07:51:50;;;;;;;;;;;;;;;15.62;47.91;101258.41;5018423;28;1092;-55
2024/03/10 07:54:15;;;;;;;;;;;;;;;17.01;44.67;101264.44;5037642;28;975;-55
2024/03/10 07:56:42;;;;;;;;;;;;;;;17.55;43.07;101264.19;5037753;28;1075;-55
2024/03/10 07:59:07;;;;;;;;;;;;;;;16.49;45.50;101263.19;5037062;28;937;-56
2024/03/10 08:01:33;;;;;;;;;;;;;;;16.14;46.39;101259.84;5036955;28;1196;-56
2024/03/10 08:03:58;;;;;;;;;;;;;;;15.84;47.06;101254.88;5037213;28;1195;-56
2024/03/10 08:06:25;;;;;;;;;;;;;;;15.67;47.76;101249.41;5037617;28;1972;-55
2024/03/10 08:08:52;;;;;;;;;;;;;;;16.99;44.61;101252.91;5036956;28;1476;-56
2024/03/10 08:11:17;;;;;;;;;;;;;;;17.81;42.46;101252.47;5036976;28;1145;-54
2024/03/10 08:13:46;;;;;;;;;;;;;;;16.68;45.24;101245.22;5024394;28;1152;-54
2024/03/10 08:16:11;;;;;;;;;;;;;;;16.24;46.23;101242.66;5037749;28;1043;-55
2024/03/10 08:18:37;;;;;;;;;;;;;;;15.97;46.82;101234.44;5037424;28;1071;-55
2024/03/10 08:21:03;;;;;;;;;;;;;;;15.87;47.17;101246.94;5036961;28;1174;-55
2024/03/10 08:23:29;;;;;;;;;;;;;;;15.70;47.39;101244.25;5036698;28;950;-56
2024/03/10 08:25:54;;;;;;;;;;;;;;;16.98;44.83;101243.81;5036803;28;1910;-55
2024/03/10 08:28:20;;;;;;;;;;;;;;;17.74;42.93;101245.28;5036937;28;1205;-55
2024/03/10 08:30:45;;;;;;;;;;;;;;;16.57;45.32;101246.25;5036555;28;1078;-56
2024/03/10 08:33:11;;;;;;;;;;;;;;;16.15;46.41;101238.72;5037111;28;1067;-53
2024/03/10 08:35:37;;;;;;;;;;;;;;;15.95;46.87;101234.69;5036743;28;1083;-56
2024/03/10 08:38:05;;;;;;;;;;;;;;;15.73;47.32;101235.50;5036996;28;1134;-55
2024/03/10 08:40:34;;;;;;;;;;;;;;;16.74;45.30;101232.38;5037138;28;1159;-56
2024/03/10 08:42:59;;;;;;;;;;;;;;;17.62;43.21;101236.44;5036782;28;1102;-55
2024/03/10 08:45:25;;;;;;;;;;;;;;;16.63;45.20;101247.09;5025487;28;1193;-55
2024/03/10 08:47:50;;;;;;;;;;;;;;;16.17;46.35;101244.78;5033637;28;1968;-56
2024/03/10 08:50:16;;;;;;;;;;;;;;;15.95;46.82;101247.56;5036470;28;1945;-54
2024/03/10 08:52:43;;;;;;;;;;;;;;;15.79;47.36;101239.16;5035821;28;1823;-54
2024/03/10 08:55:13;;;;;;;;;;;;;;;15.71;47.65;101229.47;5036278;28;2251;-54
2024/03/10 08:57:39;;;;;;;;;;;;;;;16.49;45.76;101243.97;5033383;28;2080;-52
2024/03/10 09:00:05;;;;;;;;;;;;;;;17.63;43.19;101240.84;5034527;28;2164;-52
2024/03/10 09:02:30;;;;;;;;;;;;;;;16.80;45.07;101230.47;5036400;28;1855;-54
2024/03/10 09:04:56;;;;;;;;;;;;;;;16.18;46.53;101225.31;5032259;28;1142;-55
2024/03/10 09:07:22;;;;;;;;;;;;;;;15.96;46.82;101233.59;5036595;28;2020;-55
2024/03/10 09:09:49;;;;;;;;;;;;;;;15.80;47.15;101231.78;5036364;28;1032;-53
2024/03/10 09:12:14;;;;;;;;;;;;;;;15.59;48.00;101226.03;5035902;28;1024;-55
2024/03/10 09:14:40;;;;;;;;;;;;;;;16.79;45.17;101220.56;5036251;28;1063;-56
2024/03/10 09:17:06;;;;;;;;;;;;;;;17.80;42.77;101221.38;5036184;28;1112;-56
2024/03/10 09:19:31;;;;;;;;;;;;;;;16.82;44.93;101220.88;5036569;28;1087;-56
2024/03/10 09:21:59;;;;;;;;;;;;;;;16.24;46.20;101218.78;5036472;28;1123;-56
2024/03/10 09:24:26;;;;;;;;;;;;;;;15.94;47.02;101219.31;5036088;28;1210;-56
2024/03/10 09:26:52;;;;;;;;;;;;;;;15.78;47.70;101229.28;5035727;28;1902;-53
2024/03/10 09:29:18;;;;;;;;;;;;;;;16.34;46.21;101223.53;5036396;28;1016;-55
2024/03/10 09:31:44;;;;;;;;;;;;;;;17.66;43.24;101214.75;5032976;28;2664;-55
2024/03/10 09:34:11;;;;;;;;;;;;;;;16.88;44.71;101213.50;5025857;28;1110;-56
2024/03/10 09:36:37;;;;;;;;;;;;;;;16.32;46.07;101203.75;5035498;28;1083;-57
2024/03/10 09:39:03;;;;;;;;;;;;;;;16.10;46.64;101212.06;5035952;28;1056;-54
2024/03/10 09:41:31;;;;;;;;;;;;;;;15.89;47.13;101202.78;5035566;28;1202;-57
2024/03/10 09:43:57;;;;;;;;;;;;;;;15.69;47.69;101206.94;5034912;28;1083;-57
2024/03/10 09:46:23;;;;;;;;;;;;;;;17.01;44.94;101202.09;5035691;28;1906;-54
2024/03/10 09:48:48;;;;;;;;;;;;;;;17.86;42.79;101200.22;5035585;28;1159;-56
2024/03/10 09:51:14;;;;;;;;;;;;;;;16.75;45.34;101195.56;5035883;28;1050;-57
2024/03/10 09:53:43;;;;;;;;;;;;;;;16.24;46.57;101199.59;5035538;28;1023;-55
2024/03/10 09:56:09;;;;;;;;;;;;;;;16.02;46.99;101207.88;5036860;28;1220;-54
2024/03/10 09:58:39;;;;;;;;;;;;;;;15.82;47.68;101204.91;5039722;28;996;-59
2024/03/10 10:01:11;;;;;;;;;;;;;;;15.89;47.75;101200.06;5037860;28;2000;-56
2024/03/10 10:03:38;;;;;;;;;;;;;;;17.39;43.97;101191.81;5065716;28;1043;-55
2024/03/10 10:06:04;;;;;;;;;;;;;;;17.19;44.15;101183.47;5039539;28;1906;-55
2024/03/10 10:08:29;;;;;;;;;;;;;;;16.48;46.13;101179.16;5023761;28;1104;-54
2024/03/10 10:10:58;;;;;;;;;;;;;;;16.10;46.75;101179.13;5027671;28;1134;-53
2024/03/10 10:13:24;;;;;;;;;;;;;;;15.95;47.23;101171.59;5034602;28;1059;-54
2024/03/10 10:15:52;;;;;;;;;;;;;;;15.78;47.88;101170.84;5039519;28;1083;-54
2024/03/10 10:18:18;;;;;;;;;;;;;;;15.67;47.97;101170.75;5039253;28;1102;-52
2024/03/10 10:20:47;;;;;;;;;;;;;;;17.20;44.41;101169.47;5039329;28;992;-57
2024/03/10 10:23:13;;;;;;;;;;;;;;;17.37;43.75;101162.94;5033081;28;1051;-57
2024/03/10 10:25:42;;;;;;;;;;;;;;;16.47;46.18;101159.13;5038283;28;1987;-54
2024/03/10 10:28:09;;;;;;;;;;;;;;;16.16;46.96;101158.06;5038216;28;1218;-55
2024/03/10 10:30:37;;;;;;;;;;;;;;;15.93;47.57;101153.75;5032207;28;2459;-53
2024/03/10 10:33:04;;;;;;;;;;;;;;;15.73;48.12;101152.44;5039221;28;1155;-52
2024/03/10 10:35:33;;;;;;;;;;;;;;;16.92;45.33;101156.97;5035635;28;1187;-56
2024/03/10 10:38:03;;;;;;;;;;;;;;;17.59;43.79;101151.75;5038582;28;1094;-54
2024/03/10 10:40:29;;;;;;;;;;;;;;;16.53;46.04;101154.50;5025155;28;1067;-53
2024/03/10 10:42:55;;;;;;;;;;;;;;;16.20;47.14;101150.97;5039119;28;1074;-54
2024/03/10 10:45:21;;;;;;;;;;;;;;;16.04;47.17;101148.09;5038204;28;1290;-59
2024/03/10 10:47:46;;;;;;;;;;;;;;;15.79;47.83;101143.19;5034782;28;1978;-55
2024/03/10 10:50:20;;;;;;;;;;;;;;;15.67;48.30;101146.06;5038924;28;1059;-56
2024/03/10 10:52:46;;;;;;;;;;;;;;;16.05;47.48;101133.28;5038895;28;1075;-59
2024/03/10 10:55:12;;;;;;;;;;;;;;;17.40;44.13;101138.50;5038058;28;1200;-55
2024/03/10 10:57:42;;;;;;;;;;;;;;;16.81;45.22;101138.75;5037702;28;1293;-56
2024/03/10 11:00:16;;;;;;;;;;;;;;;16.20;46.85;101131.75;5037792;28;1313;-55
2024/03/10 11:02:42;;;;;;;;;;;;;;;15.97;47.67;101117.31;5038095;28;1064;-57
2024/03/10 11:05:07;;;;;;;;;;;;;;;15.73;47.96;101114.06;5038033;28;1103;-56
2024/03/10 11:07:33;;;;;;;;;;;;;;;16.64;46.05;101116.97;5037146;28;1918;-54
2024/03/10 11:09:58;;;;;;;;;;;;;;;17.52;43.95;101108.00;5038441;28;1098;-55
2024/03/10 11:12:25;;;;;;;;;;;;;;;16.48;46.10;101108.66;5036978;28;1131;-53
2024/03/10 11:14:52;;;;;;;;;;;;;;;16.12;47.04;101094.66;5037214;28;1179;-54
2024/03/10 11:17:17;;;;;;;;;;;;;;;15.86;47.71;101096.38;5025527;28;1020;-55
2024/03/10 11:19:46;;;;;;;;;;;;;;;15.80;48.12;101098.25;5038485;28;1139;-54
2024/03/10 11:22:12;;;;;;;;;;;;;;;16.28;46.80;101098.34;5029715;28;1084;-53
2024/03/10 11:24:39;;;;;;;;;;;;;;;17.58;43.66;101093.16;5031956;28;1139;-53
2024/03/10 11:27:15;;;;;;;;;;;;;;;16.94;45.22;101088.84;5038139;28;1914;-53
2024/03/10 11:29:41;;;;;;;;;;;;;;;16.32;46.80;101090.41;5036569;28;1029;-54
2024/03/10 11:32:25;;;;;;;;;;;;;;;15.98;47.72;101083.31;5038147;28;2745;-53
2024/03/10 11:34:51;;;;;;;;;;;;;;;15.72;48.31;101083.06;5038211;28;1050;-54
2024/03/10 11:37:16;;;;;;;;;;;;;;;15.64;48.42;101078.06;5037874;28;928;-54
2024/03/10 11:39:42;;;;;;;;;;;;;;;16.87;45.49;101082.75;5037615;28;1059;-53
2024/03/10 11:42:09;;;;;;;;;;;;;;;17.70;43.67;101076.41;5037960;28;1097;-54
2024/03/10 11:44:35;;;;;;;;;;;;;;;16.69;45.90;101076.66;5037983;28;1027;-56
2024/03/10 11:47:04;;;;;;;;;;;;;;;16.14;47.03;101073.28;5037181;28;1917;-55
2024/03/10 11:49:29;;;;;;;;;;;;;;;16.01;47.29;101069.06;5036956;28;1090;-55
2024/03/10 11:51:56;;;;;;;;;;;;;;;15.77;48.08;101071.31;5037818;28;1110;-55
2024/03/10 11:54:22;;;;;;;;;;;;;;;17.22;44.93;101070.25;5032506;28;1110;-55
2024/03/10 11:56:51;;;;;;;;;;;;;;;17.40;44.15;101064.28;5032123;28;1220;-56
2024/03/10 11:59:17;;;;;;;;;;;;;;;16.50;46.16;101065.28;5037396;28;1051;-56
2024/03/10 12:01:42;;;;;;;;;;;;;;;16.10;47.23;101063.09;5036736;28;2516;-56
2024/03/10 12:04:08;;;;;;;;;;;;;;;15.95;47.72;101072.88;5036301;28;1075;-56
2024/03/10 12:06:34;;;;;;;;;;;;;;;15.71;48.11;101064.97;5025327;28;1910;-54
2024/03/10 12:09:20;;;;;;;;;;;;;;;15.97;47.67;101067.94;5036303;28;1179;-54
2024/03/10 12:11:46;;;;;;;;;;;;;;;17.60;43.85;101062.66;5037354;28;1075;-55
2024/03/10 12:14:11;;;;;;;;;;;;;;;17.04;44.92;101058.69;5024839;28;1008;-54
2024/03/10 12:16:38;;;;;;;;;;;;;;;16.35;46.86;101059.69;5036536;28;1075;-53
2024/03/10 12:19:04;;;;;;;;;;;;;;;16.08;47.47;101055.13;5037081;28;1020;-55
2024/03/10 12:21:29;;;;;;;;;;;;;;;15.89;47.68;101055.56;5037455;28;1140;-55
2024/03/10 12:23:55;;;;;;;;;;;;;;;16.00;47.68;101064.66;5035600;28;1080;-55
2024/03/10 12:26:22;;;;;;;;;;;;;;;17.52;44.31;101063.19;5036393;28;1977;-51
2024/03/10 12:28:48;;;;;;;;;;;;;;;17.01;45.29;101072.97;5036514;28;1126;-56
2024/03/10 12:31:14;;;;;;;;;;;;;;;16.36;46.70;101064.91;5028671;28;2453;-55
2024/03/10 12:33:40;;;;;;;;;;;;;;;16.17;47.32;101063.69;5029893;28;1098;-54
2024/03/10 12:36:12;;;;;;;;;;;;;;;15.84;47.95;101068.41;5036424;28;1064;-51
2024/03/10 12:38:39;;;;;;;;;;;;;;;16.23;47.23;101063.47;5036687;28;1186;-56
2024/03/10 12:41:06;;;;;;;;;;;;;;;17.63;43.92;101062.13;5030939;28;1119;-55
2024/03/10 12:43:32;;;;;;;;;;;;;;;16.89;45.51;101059.44;5017318;28;1075;-56
2024/03/10 12:45:57;;;;;;;;;;;;;;;16.37;46.68;101074.81;5035703;28;1974;-54
2024/03/10 12:48:23;;;;;;;;;;;;;;;16.04;47.72;101076.75;5036618;28;1052;-53
2024/03/10 12:50:49;;;;;;;;;;;;;;;15.81;48.29;101071.63;5036200;28;1027;-51
2024/03/10 12:53:14;;;;;;;;;;;;;;;15.59;48.70;101080.75;5036467;28;1219;-53
2024/03/10 12:55:40;;;;;;;;;;;;;;;16.59;46.64;101073.81;5036301;28;1226;-52
2024/03/10 12:58:05;;;;;;;;;;;;;;;17.75;43.99;101076.44;5036629;28;1020;-54
2024/03/10 13:00:31;;;;;;;;;;;;;;;16.81;45.56;101073.66;5033725;28;2482;-55
2024/03/10 13:02:57;;;;;;;;;;;;;;;16.27;47.02;101068.44;5036149;28;1020;-58
2024/03/10 13:05:23;;;;;;;;;;;;;;;16.03;47.59;101074.28;5036408;28;1116;-53